sensor_id;sensor_type;location;lat;lon;timestamp;pressure;altitude;pressure_sealevel;temperature;humidity
55801;BME280;41730;51.960;20.158;2023-03-13T00:00:12;99622.98;;;3.27;64.11
55801;BME280;41730;51.960;20.158;2023-03-13T00:02:45;99614.23;;;3.47;63.79
55801;BME280;41730;51.960;20.158;2023-03-13T00:05:17;99610.98;;;3.57;63.37
55801;BME280;41730;51.960;20.158;2023-03-13T00:07:48;99602.84;;;3.44;63.55
55801;BME280;41730;51.960;20.158;2023-03-13T00:10:20;99604.95;;;3.38;63.78
55801;BME280;41730;51.960;20.158;2023-03-13T00:12:52;99605.25;;;3.47;63.61
55801;BME280;41730;51.960;20.158;2023-03-13T00:15:23;99601.04;;;3.42;63.53
55801;BME280;41730;51.960;20.158;2023-03-13T00:17:55;99597.27;;;3.47;63.68
55801;BME280;41730;51.960;20.158;2023-03-13T00:20:29;99595.04;;;3.52;63.59
55801;BME280;41730;51.960;20.158;2023-03-13T00:23:01;99588.27;;;3.44;63.44
55801;BME280;41730;51.960;20.158;2023-03-13T00:25:33;99593.72;;;3.37;63.73
55801;BME280;41730;51.960;20.158;2023-03-13T00:28:05;99598.75;;;3.43;63.67
55801;BME280;41730;51.960;20.158;2023-03-13T00:30:38;99600.75;;;3.33;63.79
55801;BME280;41730;51.960;20.158;2023-03-13T00:33:10;99606.83;;;3.25;64.28
55801;BME280;41730;51.960;20.158;2023-03-13T00:35:42;99605.68;;;3.54;63.62
55801;BME280;41730;51.960;20.158;2023-03-13T00:38:14;99609.69;;;3.64;63.24
55801;BME280;41730;51.960;20.158;2023-03-13T00:40:46;99612.02;;;3.58;63.04
55801;BME280;41730;51.960;20.158;2023-03-13T00:43:18;99605.89;;;3.50;63.47
55801;BME280;41730;51.960;20.158;2023-03-13T00:45:51;99595.61;;;3.78;63.03
55801;BME280;41730;51.960;20.158;2023-03-13T00:48:23;99590.27;;;3.78;62.71
55801;BME280;41730;51.960;20.158;2023-03-13T00:50:54;99585.63;;;3.75;62.81
55801;BME280;41730;51.960;20.158;2023-03-13T00:53:27;99578.52;;;3.72;62.79
55801;BME280;41730;51.960;20.158;2023-03-13T00:56:00;99573.92;;;3.66;63.04
55801;BME280;41730;51.960;20.158;2023-03-13T00:58:34;99572.39;;;3.62;63.17
55801;BME280;41730;51.960;20.158;2023-03-13T01:01:10;99574.05;;;3.52;63.35
55801;BME280;41730;51.960;20.158;2023-03-13T01:03:44;99575.09;;;3.39;63.89
55801;BME280;41730;51.960;20.158;2023-03-13T01:06:18;99573.63;;;3.45;63.69
55801;BME280;41730;51.960;20.158;2023-03-13T01:08:50;99568.02;;;3.35;63.91
55801;BME280;41730;51.960;20.158;2023-03-13T01:11:24;99567.33;;;3.30;64.15
55801;BME280;41730;51.960;20.158;2023-03-13T01:13:57;99569.21;;;3.16;64.58
55801;BME280;41730;51.960;20.158;2023-03-13T01:16:30;99558.61;;;3.09;65.06
55801;BME280;41730;51.960;20.158;2023-03-13T01:19:04;99560.63;;;3.21;64.82
55801;BME280;41730;51.960;20.158;2023-03-13T01:21:37;99559.69;;;3.38;64.43
55801;BME280;41730;51.960;20.158;2023-03-13T01:24:10;99541.15;;;3.25;64.81
55801;BME280;41730;51.960;20.158;2023-03-13T01:26:41;99540.48;;;3.16;65.10
55801;BME280;41730;51.960;20.158;2023-03-13T01:29:13;99540.36;;;3.09;65.29
55801;BME280;41730;51.960;20.158;2023-03-13T01:31:45;99543.55;;;3.00;65.68
55801;BME280;41730;51.960;20.158;2023-03-13T01:34:17;99546.10;;;2.98;65.75
55801;BME280;41730;51.960;20.158;2023-03-13T01:36:49;99546.23;;;3.04;65.82
55801;BME280;41730;51.960;20.158;2023-03-13T01:39:21;99549.41;;;3.09;65.87
55801;BME280;41730;51.960;20.158;2023-03-13T01:41:54;99541.42;;;3.09;65.76
55801;BME280;41730;51.960;20.158;2023-03-13T01:44:27;99541.52;;;2.96;66.27
55801;BME280;41730;51.960;20.158;2023-03-13T01:46:58;99543.71;;;2.95;66.47
55801;BME280;41730;51.960;20.158;2023-03-13T01:49:31;99542.02;;;2.85;66.60
55801;BME280;41730;51.960;20.158;2023-03-13T01:52:06;99537.52;;;2.88;66.81
55801;BME280;41730;51.960;20.158;2023-03-13T01:54:41;99526.69;;;3.01;66.54
55801;BME280;41730;51.960;20.158;2023-03-13T01:57:17;99522.15;;;3.02;66.63
55801;BME280;41730;51.960;20.158;2023-03-13T01:59:55;99521.33;;;3.14;66.32
55801;BME280;41730;51.960;20.158;2023-03-13T02:02:29;99518.10;;;3.03;66.58
55801;BME280;41730;51.960;20.158;2023-03-13T02:05:02;99519.41;;;2.87;67.08
55801;BME280;41730;51.960;20.158;2023-03-13T02:07:38;99517.29;;;2.88;67.28
55801;BME280;41730;51.960;20.158;2023-03-13T02:10:13;99515.61;;;3.01;67.07
55801;BME280;41730;51.960;20.158;2023-03-13T02:12:48;99515.27;;;2.95;67.17
55801;BME280;41730;51.960;20.158;2023-03-13T02:15:22;99519.00;;;2.91;67.43
55801;BME280;41730;51.960;20.158;2023-03-13T02:17:55;99517.58;;;2.89;67.67
55801;BME280;41730;51.960;20.158;2023-03-13T02:20:27;99519.27;;;2.89;67.75
55801;BME280;41730;51.960;20.158;2023-03-13T02:23:01;99517.00;;;2.90;67.73
55801;BME280;41730;51.960;20.158;2023-03-13T02:25:42;99516.77;;;2.93;67.88
55801;BME280;41730;51.960;20.158;2023-03-13T02:28:18;99518.33;;;3.02;67.77
55801;BME280;41730;51.960;20.158;2023-03-13T02:30:54;99520.36;;;3.03;67.74
55801;BME280;41730;51.960;20.158;2023-03-13T02:33:29;99523.51;;;3.05;67.84
55801;BME280;41730;51.960;20.158;2023-03-13T02:36:04;99523.92;;;3.04;67.86
55801;BME280;41730;51.960;20.158;2023-03-13T02:38:40;99520.69;;;3.06;68.08
55801;BME280;41730;51.960;20.158;2023-03-13T02:41:14;99522.23;;;3.03;68.12
55801;BME280;41730;51.960;20.158;2023-03-13T02:43:47;99523.54;;;3.07;68.06
55801;BME280;41730;51.960;20.158;2023-03-13T02:46:20;99524.47;;;3.23;67.91
55801;BME280;41730;51.960;20.158;2023-03-13T02:48:54;99526.79;;;3.30;67.72
55801;BME280;41730;51.960;20.158;2023-03-13T02:51:26;99520.17;;;3.08;68.26
55801;BME280;41730;51.960;20.158;2023-03-13T02:54:03;99522.46;;;3.05;68.40
55801;BME280;41730;51.960;20.158;2023-03-13T02:56:38;99521.00;;;3.04;68.62
55801;BME280;41730;51.960;20.158;2023-03-13T02:59:12;99527.38;;;3.01;68.73
55801;BME280;41730;51.960;20.158;2023-03-13T03:01:44;99526.24;;;2.89;69.40
55801;BME280;41730;51.960;20.158;2023-03-13T03:04:15;99526.63;;;2.94;69.50
55801;BME280;41730;51.960;20.158;2023-03-13T03:06:47;99530.52;;;2.87;69.76
55801;BME280;41730;51.960;20.158;2023-03-13T03:09:19;99533.84;;;2.92;69.78
55801;BME280;41730;51.960;20.158;2023-03-13T03:11:51;99533.46;;;2.82;70.28
55801;BME280;41730;51.960;20.158;2023-03-13T03:14:23;99536.71;;;2.79;70.69
55801;BME280;41730;51.960;20.158;2023-03-13T03:16:54;99538.95;;;2.70;71.11
55801;BME280;41730;51.960;20.158;2023-03-13T03:19:26;99528.89;;;2.79;71.14
55801;BME280;41730;51.960;20.158;2023-03-13T03:21:58;99521.64;;;2.88;71.03
55801;BME280;41730;51.960;20.158;2023-03-13T03:24:29;99521.96;;;2.82;71.23
55801;BME280;41730;51.960;20.158;2023-03-13T03:27:01;99529.40;;;2.65;71.90
55801;BME280;41730;51.960;20.158;2023-03-13T03:29:33;99528.67;;;2.63;72.26
55801;BME280;41730;51.960;20.158;2023-03-13T03:32:04;99528.15;;;2.63;72.40
55801;BME280;41730;51.960;20.158;2023-03-13T03:34:36;99527.85;;;2.60;72.82
55801;BME280;41730;51.960;20.158;2023-03-13T03:37:08;99526.41;;;2.60;72.81
55801;BME280;41730;51.960;20.158;2023-03-13T03:39:39;99521.55;;;2.66;72.99
55801;BME280;41730;51.960;20.158;2023-03-13T03:42:11;99523.90;;;2.64;73.25
55801;BME280;41730;51.960;20.158;2023-03-13T03:44:44;99525.77;;;2.63;73.29
55801;BME280;41730;51.960;20.158;2023-03-13T03:47:16;99515.20;;;2.60;73.60
55801;BME280;41730;51.960;20.158;2023-03-13T03:49:48;99513.96;;;2.66;73.54
55801;BME280;41730;51.960;20.158;2023-03-13T03:52:20;99510.28;;;2.64;73.83
55801;BME280;41730;51.960;20.158;2023-03-13T03:54:51;99507.91;;;2.66;73.94
55801;BME280;41730;51.960;20.158;2023-03-13T03:57:23;99503.63;;;2.70;73.84
55801;BME280;41730;51.960;20.158;2023-03-13T03:59:55;99498.09;;;2.79;73.90
55801;BME280;41730;51.960;20.158;2023-03-13T04:02:26;99495.27;;;2.77;73.75
55801;BME280;41730;51.960;20.158;2023-03-13T04:04:58;99493.25;;;2.79;73.96
55801;BME280;41730;51.960;20.158;2023-03-13T04:07:30;99491.29;;;2.80;73.87
55801;BME280;41730;51.960;20.158;2023-03-13T04:10:02;99491.02;;;2.85;74.09
55801;BME280;41730;51.960;20.158;2023-03-13T04:12:34;99485.74;;;2.83;74.13
55801;BME280;41730;51.960;20.158;2023-03-13T04:15:07;99483.95;;;2.75;74.48
55801;BME280;41730;51.960;20.158;2023-03-13T04:17:39;99482.20;;;2.70;74.94
55801;BME280;41730;51.960;20.158;2023-03-13T04:20:13;99480.31;;;2.78;74.92
55801;BME280;41730;51.960;20.158;2023-03-13T04:22:45;99476.83;;;2.84;74.86
55801;BME280;41730;51.960;20.158;2023-03-13T04:25:23;99476.70;;;2.84;74.83
55801;BME280;41730;51.960;20.158;2023-03-13T04:28:07;99473.05;;;2.84;75.18
55801;BME280;41730;51.960;20.158;2023-03-13T04:31:11;99468.92;;;3.02;74.49
55801;BME280;41730;51.960;20.158;2023-03-13T04:33:51;99465.20;;;3.14;74.36
55801;BME280;41730;51.960;20.158;2023-03-13T04:36:23;99459.80;;;3.12;74.39
55801;BME280;41730;51.960;20.158;2023-03-13T04:38:55;99453.34;;;3.13;74.71
55801;BME280;41730;51.960;20.158;2023-03-13T04:41:51;99457.81;;;3.08;74.83
55801;BME280;41730;51.960;20.158;2023-03-13T04:44:24;99450.73;;;3.08;74.87
55801;BME280;41730;51.960;20.158;2023-03-13T04:46:56;99453.94;;;3.07;75.19
55801;BME280;41730;51.960;20.158;2023-03-13T04:49:28;99451.75;;;3.01;75.67
55801;BME280;41730;51.960;20.158;2023-03-13T04:51:59;99456.54;;;2.98;75.98
55801;BME280;41730;51.960;20.158;2023-03-13T04:54:32;99462.15;;;2.95;76.00
55801;BME280;41730;51.960;20.158;2023-03-13T04:57:03;99461.89;;;2.94;76.37
55801;BME280;41730;51.960;20.158;2023-03-13T04:59:36;99458.86;;;2.97;76.34
55801;BME280;41730;51.960;20.158;2023-03-13T05:02:10;99460.60;;;3.03;76.39
55801;BME280;41730;51.960;20.158;2023-03-13T05:04:42;99463.84;;;3.09;76.25
55801;BME280;41730;51.960;20.158;2023-03-13T05:07:14;99458.76;;;3.02;76.47
55801;BME280;41730;51.960;20.158;2023-03-13T05:09:45;99460.11;;;3.00;76.67
55801;BME280;41730;51.960;20.158;2023-03-13T05:12:17;99463.39;;;3.03;76.79
55801;BME280;41730;51.960;20.158;2023-03-13T05:14:49;99457.05;;;3.07;76.68
55801;BME280;41730;51.960;20.158;2023-03-13T05:17:22;99457.92;;;3.12;76.66
55801;BME280;41730;51.960;20.158;2023-03-13T05:19:54;99451.54;;;3.25;76.32
55801;BME280;41730;51.960;20.158;2023-03-13T05:22:27;99447.59;;;3.30;76.46
55801;BME280;41730;51.960;20.158;2023-03-13T05:24:58;99448.13;;;3.49;76.17
55801;BME280;41730;51.960;20.158;2023-03-13T05:27:30;99443.34;;;3.50;75.95
55801;BME280;41730;51.960;20.158;2023-03-13T05:30:02;99445.15;;;3.46;76.20
55801;BME280;41730;51.960;20.158;2023-03-13T05:32:34;99443.77;;;3.38;76.66
55801;BME280;41730;51.960;20.158;2023-03-13T05:35:08;99439.48;;;3.48;76.43
55801;BME280;41730;51.960;20.158;2023-03-13T05:37:41;99439.75;;;3.57;76.37
55801;BME280;41730;51.960;20.158;2023-03-13T05:40:14;99435.17;;;3.61;76.31
55801;BME280;41730;51.960;20.158;2023-03-13T05:42:47;99428.50;;;3.68;76.22
55801;BME280;41730;51.960;20.158;2023-03-13T05:45:19;99423.84;;;3.67;76.37
55801;BME280;41730;51.960;20.158;2023-03-13T05:47:50;99424.09;;;3.71;76.34
55801;BME280;41730;51.960;20.158;2023-03-13T05:50:23;99420.91;;;3.70;76.58
55801;BME280;41730;51.960;20.158;2023-03-13T05:52:55;99418.88;;;3.72;76.73
55801;BME280;41730;51.960;20.158;2023-03-13T05:55:28;99419.94;;;3.69;76.89
55801;BME280;41730;51.960;20.158;2023-03-13T05:58:00;99417.80;;;3.80;76.97
55801;BME280;41730;51.960;20.158;2023-03-13T06:00:31;99416.78;;;3.95;76.65
55801;BME280;41730;51.960;20.158;2023-03-13T06:03:04;99415.89;;;3.98;76.54
55801;BME280;41730;51.960;20.158;2023-03-13T06:05:36;99417.17;;;3.97;76.82
55801;BME280;41730;51.960;20.158;2023-03-13T06:08:07;99413.54;;;3.99;77.01
55801;BME280;41730;51.960;20.158;2023-03-13T06:10:40;99410.96;;;4.04;77.00
55801;BME280;41730;51.960;20.158;2023-03-13T06:13:12;99413.80;;;4.03;77.35
55801;BME280;41730;51.960;20.158;2023-03-13T06:15:53;99411.20;;;4.06;77.61
55801;BME280;41730;51.960;20.158;2023-03-13T06:18:26;99410.74;;;4.20;77.47
55801;BME280;41730;51.960;20.158;2023-03-13T06:21:00;99406.92;;;4.35;77.25
55801;BME280;41730;51.960;20.158;2023-03-13T06:23:32;99400.17;;;4.39;77.15
55801;BME280;41730;51.960;20.158;2023-03-13T06:26:04;99396.39;;;4.39;77.60
55801;BME280;41730;51.960;20.158;2023-03-13T06:28:36;99396.81;;;4.53;77.45
55801;BME280;41730;51.960;20.158;2023-03-13T06:31:09;99393.70;;;4.70;77.33
55801;BME280;41730;51.960;20.158;2023-03-13T06:33:41;99396.50;;;4.94;76.70
55801;BME280;41730;51.960;20.158;2023-03-13T06:36:14;99390.91;;;5.01;76.40
55801;BME280;41730;51.960;20.158;2023-03-13T06:38:47;99394.42;;;5.01;76.56
55801;BME280;41730;51.960;20.158;2023-03-13T06:41:19;99395.27;;;5.18;76.34
55801;BME280;41730;51.960;20.158;2023-03-13T06:43:51;99396.91;;;5.26;77.00
55801;BME280;41730;51.960;20.158;2023-03-13T06:46:24;99397.20;;;5.44;77.21
55801;BME280;41730;51.960;20.158;2023-03-13T06:48:56;99397.10;;;5.56;76.92
55801;BME280;41730;51.960;20.158;2023-03-13T06:51:28;99390.44;;;5.69;76.70
55801;BME280;41730;51.960;20.158;2023-03-13T06:54:02;99390.98;;;5.78;76.45
55801;BME280;41730;51.960;20.158;2023-03-13T06:56:34;99388.14;;;5.76;76.67
55801;BME280;41730;51.960;20.158;2023-03-13T06:59:05;99389.80;;;5.82;76.62
55801;BME280;41730;51.960;20.158;2023-03-13T07:01:37;99390.46;;;5.89;76.44
55801;BME280;41730;51.960;20.158;2023-03-13T07:04:12;99388.80;;;5.93;76.31
55801;BME280;41730;51.960;20.158;2023-03-13T07:06:45;99379.48;;;5.85;76.81
55801;BME280;41730;51.960;20.158;2023-03-13T07:09:17;99377.10;;;5.91;76.89
55801;BME280;41730;51.960;20.158;2023-03-13T07:11:50;99371.14;;;6.01;76.81
55801;BME280;41730;51.960;20.158;2023-03-13T07:14:22;99366.84;;;6.12;76.48
55801;BME280;41730;51.960;20.158;2023-03-13T07:16:54;99369.38;;;6.31;76.17
55801;BME280;41730;51.960;20.158;2023-03-13T07:19:27;99369.17;;;6.38;75.92
55801;BME280;41730;51.960;20.158;2023-03-13T07:21:59;99366.73;;;6.42;76.06
55801;BME280;41730;51.960;20.158;2023-03-13T07:24:32;99369.69;;;6.42;76.03
55801;BME280;41730;51.960;20.158;2023-03-13T07:27:04;99366.84;;;6.52;76.07
55801;BME280;41730;51.960;20.158;2023-03-13T07:29:37;99359.31;;;6.72;75.73
55801;BME280;41730;51.960;20.158;2023-03-13T07:32:10;99353.06;;;6.80;75.50
55801;BME280;41730;51.960;20.158;2023-03-13T07:34:42;99353.40;;;6.89;75.43
55801;BME280;41730;51.960;20.158;2023-03-13T07:37:15;99356.19;;;7.02;75.24
55801;BME280;41730;51.960;20.158;2023-03-13T07:39:47;99353.17;;;7.07;75.65
55801;BME280;41730;51.960;20.158;2023-03-13T07:42:19;99349.52;;;7.13;75.92
55801;BME280;41730;51.960;20.158;2023-03-13T07:44:51;99347.23;;;7.18;76.30
55801;BME280;41730;51.960;20.158;2023-03-13T07:47:23;99339.77;;;7.32;76.25
55801;BME280;41730;51.960;20.158;2023-03-13T07:49:55;99341.52;;;7.55;75.96
55801;BME280;41730;51.960;20.158;2023-03-13T07:52:28;99343.66;;;7.77;75.68
55801;BME280;41730;51.960;20.158;2023-03-13T07:55:00;99339.92;;;7.97;75.47
55801;BME280;41730;51.960;20.158;2023-03-13T07:57:32;99345.77;;;8.18;75.28
55801;BME280;41730;51.960;20.158;2023-03-13T08:00:07;99343.14;;;8.46;74.60
55801;BME280;41730;51.960;20.158;2023-03-13T08:02:45;99339.51;;;8.60;73.89
55801;BME280;41730;51.960;20.158;2023-03-13T08:05:17;99343.06;;;8.61;73.61
55801;BME280;41730;51.960;20.158;2023-03-13T08:07:49;99354.42;;;8.59;73.60
55801;BME280;41730;51.960;20.158;2023-03-13T08:10:20;99350.27;;;8.66;73.48
55801;BME280;41730;51.960;20.158;2023-03-13T08:12:52;99348.05;;;8.74;73.86
55801;BME280;41730;51.960;20.158;2023-03-13T08:15:24;99338.48;;;8.91;73.42
55801;BME280;41730;51.960;20.158;2023-03-13T08:17:57;99335.39;;;8.98;72.64
55801;BME280;41730;51.960;20.158;2023-03-13T08:20:32;99333.84;;;9.02;72.48
55801;BME280;41730;51.960;20.158;2023-03-13T08:23:04;99336.79;;;9.14;72.24
55801;BME280;41730;51.960;20.158;2023-03-13T08:25:35;99335.55;;;9.22;71.82
55801;BME280;41730;51.960;20.158;2023-03-13T08:28:07;99328.38;;;9.14;71.77
55801;BME280;41730;51.960;20.158;2023-03-13T08:30:40;99328.60;;;9.15;71.89
55801;BME280;41730;51.960;20.158;2023-03-13T08:33:12;99326.41;;;9.05;72.02
55801;BME280;41730;51.960;20.158;2023-03-13T08:35:43;99323.95;;;9.03;72.32
55801;BME280;41730;51.960;20.158;2023-03-13T08:38:15;99326.27;;;9.16;72.23
55801;BME280;41730;51.960;20.158;2023-03-13T08:40:47;99320.81;;;9.34;71.49
55801;BME280;41730;51.960;20.158;2023-03-13T08:43:21;99314.02;;;9.37;71.06
55801;BME280;41730;51.960;20.158;2023-03-13T08:45:56;99310.88;;;9.33;71.48
55801;BME280;41730;51.960;20.158;2023-03-13T08:48:28;99308.60;;;9.50;71.18
55801;BME280;41730;51.960;20.158;2023-03-13T08:51:05;99304.27;;;9.50;71.30
55801;BME280;41730;51.960;20.158;2023-03-13T08:53:39;99296.05;;;9.54;71.48
55801;BME280;41730;51.960;20.158;2023-03-13T08:56:12;99291.87;;;9.55;71.39
55801;BME280;41730;51.960;20.158;2023-03-13T08:58:47;99286.71;;;9.72;71.15
55801;BME280;41730;51.960;20.158;2023-03-13T09:01:20;99284.06;;;9.81;70.95
55801;BME280;41730;51.960;20.158;2023-03-13T09:03:52;99279.20;;;9.86;71.15
55801;BME280;41730;51.960;20.158;2023-03-13T09:06:24;99275.27;;;9.89;70.87
55801;BME280;41730;51.960;20.158;2023-03-13T09:08:56;99272.94;;;9.91;70.44
55801;BME280;41730;51.960;20.158;2023-03-13T09:11:28;99267.58;;;9.90;70.77
55801;BME280;41730;51.960;20.158;2023-03-13T09:14:00;99264.67;;;9.95;70.74
55801;BME280;41730;51.960;20.158;2023-03-13T09:16:33;99267.27;;;10.14;70.19
55801;BME280;41730;51.960;20.158;2023-03-13T09:19:05;99258.45;;;10.20;69.97
55801;BME280;41730;51.960;20.158;2023-03-13T09:21:36;99255.80;;;10.26;69.85
55801;BME280;41730;51.960;20.158;2023-03-13T09:24:09;99249.49;;;10.39;69.44
55801;BME280;41730;51.960;20.158;2023-03-13T09:26:41;99244.52;;;10.32;69.61
55801;BME280;41730;51.960;20.158;2023-03-13T09:29:29;99242.21;;;10.29;69.76
55801;BME280;41730;51.960;20.158;2023-03-13T09:32:02;99242.02;;;10.33;69.81
55801;BME280;41730;51.960;20.158;2023-03-13T09:34:34;99240.98;;;10.33;69.69
55801;BME280;41730;51.960;20.158;2023-03-13T09:37:06;99244.73;;;10.28;69.77
55801;BME280;41730;51.960;20.158;2023-03-13T09:39:37;99246.27;;;10.36;69.46
55801;BME280;41730;51.960;20.158;2023-03-13T09:42:14;99245.08;;;10.36;69.38
55801;BME280;41730;51.960;20.158;2023-03-13T09:44:51;99241.83;;;10.25;69.55
55801;BME280;41730;51.960;20.158;2023-03-13T09:47:25;99240.08;;;10.24;69.64
55801;BME280;41730;51.960;20.158;2023-03-13T09:50:04;99234.93;;;10.35;69.52
55801;BME280;41730;51.960;20.158;2023-03-13T09:52:42;99232.47;;;10.54;69.11
55801;BME280;41730;51.960;20.158;2023-03-13T09:55:19;99230.98;;;10.60;69.03
55801;BME280;41730;51.960;20.158;2023-03-13T09:57:54;99225.42;;;10.66;68.84
55801;BME280;41730;51.960;20.158;2023-03-13T10:00:28;99221.20;;;10.86;68.45
55801;BME280;41730;51.960;20.158;2023-03-13T10:03:06;99218.70;;;10.88;68.59
55801;BME280;41730;51.960;20.158;2023-03-13T10:05:47;99208.96;;;10.93;68.37
55801;BME280;41730;51.960;20.158;2023-03-13T10:08:23;99204.98;;;10.94;68.65
55801;BME280;41730;51.960;20.158;2023-03-13T10:10:54;99205.69;;;11.04;68.38
55801;BME280;41730;51.960;20.158;2023-03-13T10:13:32;99201.70;;;11.09;68.51
55801;BME280;41730;51.960;20.158;2023-03-13T10:16:10;99191.86;;;11.28;68.16
55801;BME280;41730;51.960;20.158;2023-03-13T10:18:51;99188.91;;;11.45;67.42
55801;BME280;41730;51.960;20.158;2023-03-13T10:21:26;99191.42;;;11.48;67.30
55801;BME280;41730;51.960;20.158;2023-03-13T10:24:09;99189.81;;;11.48;66.77
55801;BME280;41730;51.960;20.158;2023-03-13T10:26:44;99187.84;;;11.49;67.21
55801;BME280;41730;51.960;20.158;2023-03-13T10:29:23;99191.09;;;11.58;66.79
55801;BME280;41730;51.960;20.158;2023-03-13T10:32:00;99191.34;;;11.59;67.01
55801;BME280;41730;51.960;20.158;2023-03-13T10:34:48;99186.06;;;11.81;66.39
55801;BME280;41730;51.960;20.158;2023-03-13T10:37:24;99178.88;;;11.97;65.44
55801;BME280;41730;51.960;20.158;2023-03-13T10:40:12;99170.83;;;12.06;65.68
55801;BME280;41730;51.960;20.158;2023-03-13T10:42:45;99159.49;;;12.26;65.52
55801;BME280;41730;51.960;20.158;2023-03-13T10:45:20;99154.10;;;12.36;65.48
55801;BME280;41730;51.960;20.158;2023-03-13T10:47:59;99144.96;;;12.43;65.36
55801;BME280;41730;51.960;20.158;2023-03-13T10:50:33;99138.05;;;12.56;64.91
55801;BME280;41730;51.960;20.158;2023-03-13T10:53:22;99136.88;;;12.67;64.62
55801;BME280;41730;51.960;20.158;2023-03-13T10:55:56;99132.41;;;12.78;64.58
55801;BME280;41730;51.960;20.158;2023-03-13T10:58:32;99119.98;;;12.84;63.54
55801;BME280;41730;51.960;20.158;2023-03-13T11:01:20;99115.08;;;12.85;63.41
55801;BME280;41730;51.960;20.158;2023-03-13T11:03:53;99109.50;;;12.81;63.16
55801;BME280;41730;51.960;20.158;2023-03-13T11:06:28;99113.00;;;12.70;63.15
55801;BME280;41730;51.960;20.158;2023-03-13T11:09:15;99105.31;;;12.75;62.70
55801;BME280;41730;51.960;20.158;2023-03-13T11:11:48;99097.27;;;12.97;62.66
55801;BME280;41730;51.960;20.158;2023-03-13T11:14:21;99096.05;;;13.08;62.51
55801;BME280;41730;51.960;20.158;2023-03-13T11:16:57;99086.34;;;13.13;62.18
55801;BME280;41730;51.960;20.158;2023-03-13T11:19:38;99085.09;;;13.05;61.97
55801;BME280;41730;51.960;20.158;2023-03-13T11:25:16;99063.30;;;12.86;62.07
55801;BME280;41730;51.960;20.158;2023-03-13T11:31:01;99054.51;;;12.95;61.52
55801;BME280;41730;51.960;20.158;2023-03-13T11:33:41;99044.25;;;12.84;61.46
55801;BME280;41730;51.960;20.158;2023-03-13T11:36:20;99047.95;;;12.80;61.62
55801;BME280;41730;51.960;20.158;2023-03-13T11:39:04;99043.34;;;12.69;61.47
55801;BME280;41730;51.960;20.158;2023-03-13T11:41:47;99038.17;;;12.62;61.90
55801;BME280;41730;51.960;20.158;2023-03-13T11:44:26;99032.04;;;12.65;61.78
55801;BME280;41730;51.960;20.158;2023-03-13T11:47:10;99030.67;;;12.80;61.38
55801;BME280;41730;51.960;20.158;2023-03-13T11:49:54;99018.89;;;12.91;60.89
55801;BME280;41730;51.960;20.158;2023-03-13T11:52:47;99021.12;;;12.87;61.02
55801;BME280;41730;51.960;20.158;2023-03-13T11:58:36;99013.23;;;13.06;60.71
55801;BME280;41730;51.960;20.158;2023-03-13T12:01:12;99016.96;;;13.04;60.94
55801;BME280;41730;51.960;20.158;2023-03-13T12:03:55;99011.98;;;12.96;60.44
55801;BME280;41730;51.960;20.158;2023-03-13T12:06:33;99011.61;;;12.79;61.29
55801;BME280;41730;51.960;20.158;2023-03-13T12:09:10;99010.89;;;12.77;61.28
55801;BME280;41730;51.960;20.158;2023-03-13T12:11:49;99012.52;;;12.68;61.88
55801;BME280;41730;51.960;20.158;2023-03-13T12:14:26;99012.80;;;12.59;61.89
55801;BME280;41730;51.960;20.158;2023-03-13T12:17:04;99011.08;;;12.50;62.78
55801;BME280;41730;51.960;20.158;2023-03-13T12:19:41;99010.05;;;12.47;63.05
55801;BME280;41730;51.960;20.158;2023-03-13T12:22:21;99006.10;;;12.33;63.65
55801;BME280;41730;51.960;20.158;2023-03-13T12:24:59;99004.08;;;12.25;64.33
55801;BME280;41730;51.960;20.158;2023-03-13T12:27:38;98994.64;;;12.14;64.84
55801;BME280;41730;51.960;20.158;2023-03-13T12:30:20;98989.97;;;11.97;65.11
55801;BME280;41730;51.960;20.158;2023-03-13T12:32:59;98990.91;;;11.97;65.66
55801;BME280;41730;51.960;20.158;2023-03-13T12:35:33;98990.79;;;11.88;66.04
55801;BME280;41730;51.960;20.158;2023-03-13T12:38:13;98993.37;;;11.80;66.55
55801;BME280;41730;51.960;20.158;2023-03-13T12:40:51;98985.66;;;11.80;66.54
55801;BME280;41730;51.960;20.158;2023-03-13T12:43:32;98980.06;;;11.73;67.13
55801;BME280;41730;51.960;20.158;2023-03-13T12:49:42;98972.32;;;11.52;67.71
55801;BME280;41730;51.960;20.158;2023-03-13T12:55:38;98962.19;;;11.38;68.74
55801;BME280;41730;51.960;20.158;2023-03-13T12:58:40;98957.25;;;11.30;69.06
55801;BME280;41730;51.960;20.158;2023-03-13T13:01:18;98960.11;;;11.36;69.28
55801;BME280;41730;51.960;20.158;2023-03-13T13:03:55;98961.77;;;11.37;69.25
55801;BME280;41730;51.960;20.158;2023-03-13T13:06:53;98957.95;;;11.40;69.49
55801;BME280;41730;51.960;20.158;2023-03-13T13:09:27;98954.63;;;11.38;69.76
55801;BME280;41730;51.960;20.158;2023-03-13T13:12:01;98954.73;;;11.34;69.89
55801;BME280;41730;51.960;20.158;2023-03-13T13:17:42;98934.49;;;11.16;70.31
55801;BME280;41730;51.960;20.158;2023-03-13T13:20:35;98928.81;;;10.99;71.42
55801;BME280;41730;51.960;20.158;2023-03-13T13:23:32;98923.19;;;11.02;71.63
55801;BME280;41730;51.960;20.158;2023-03-13T13:32:38;98916.24;;;10.97;71.97
55801;BME280;41730;51.960;20.158;2023-03-13T13:35:33;98917.73;;;10.91;72.51
55801;BME280;41730;51.960;20.158;2023-03-13T13:38:30;98912.20;;;10.98;72.56
55801;BME280;41730;51.960;20.158;2023-03-13T13:41:35;98903.98;;;10.98;72.51
55801;BME280;41730;51.960;20.158;2023-03-13T13:44:28;98901.58;;;11.04;72.63
55801;BME280;41730;51.960;20.158;2023-03-13T13:47:01;98900.53;;;11.07;72.60
55801;BME280;41730;51.960;20.158;2023-03-13T13:49:54;98896.20;;;11.10;72.56
55801;BME280;41730;51.960;20.158;2023-03-13T13:52:37;98891.40;;;11.12;72.62
55801;BME280;41730;51.960;20.158;2023-03-13T13:55:33;98886.80;;;11.08;72.60
55801;BME280;41730;51.960;20.158;2023-03-13T13:58:19;98886.67;;;11.20;72.68
55801;BME280;41730;51.960;20.158;2023-03-13T14:00:55;98877.11;;;11.32;71.84
55801;BME280;41730;51.960;20.158;2023-03-13T14:03:30;98873.54;;;11.34;71.65